Time;durP1;ratioP1;P1;durP2;ratioP2;P2;SDS_P1;SDS_P2;PMS_P1;PMS_P2;Temp;Humidity;BMP_temperature;BMP_pressure;BME280_temperature;BME280_humidity;BME280_pressure;Samples;Min_cycle;Max_cycle;Signal;HPM_P1;HPM_P2
2021/10/14 00:02:12;;;;;;;19.13;11.13;;;;;;;11.45;94.26;102723.06;4925989;29;20457;-89
2021/10/14 00:04:38;;;;;;;17.48;10.05;;;;;;;11.46;93.97;102718.69;4906579;29;20055;-89
2021/10/14 00:07:03;;;;;;;15.93;10.30;;;;;;;11.48;94.12;102722.19;4938520;29;20046;-89
2021/10/14 00:09:29;;;;;;;18.13;10.95;;;;;;;11.48;94.18;102716.94;4922640;29;20054;-89
2021/10/14 00:11:54;;;;;;;16.92;10.55;;;;;;;11.49;93.99;102714.25;4922602;29;20042;-89
2021/10/14 00:14:20;;;;;;;17.98;11.18;;;;;;;11.49;94.34;102709.00;4922156;29;20366;-88
2021/10/14 00:16:45;;;;;;;15.65;10.55;;;;;;;11.49;94.26;102701.16;4906789;29;20095;-89
2021/10/14 00:19:10;;;;;;;20.15;11.73;;;;;;;11.52;94.17;102708.13;4922499;29;20333;-89
2021/10/14 00:21:36;;;;;;;23.35;12.07;;;;;;;11.52;94.47;102706.34;4922083;29;20032;-88
2021/10/14 00:24:01;;;;;;;24.00;12.75;;;;;;;11.54;94.36;102701.09;4891292;29;20104;-89
2021/10/14 00:26:27;;;;;;;20.00;12.15;;;;;;;11.57;94.33;102706.31;4922337;29;20035;-89
2021/10/14 00:28:52;;;;;;;20.35;12.65;;;;;;;11.58;94.48;102697.53;4906523;29;20043;-88
2021/10/14 00:31:18;;;;;;;23.27;13.70;;;;;;;11.60;94.46;102693.13;4922078;29;20063;-89
2021/10/14 00:33:43;;;;;;;23.92;12.50;;;;;;;11.62;94.69;102690.47;4922729;29;20152;-89
2021/10/14 00:36:08;;;;;;;25.52;13.15;;;;;;;11.62;94.49;102682.59;4906414;29;20066;-89
2021/10/14 00:38:34;;;;;;;27.27;12.80;;;;;;;11.65;94.63;102688.66;4921981;29;20352;-89
2021/10/14 00:40:59;;;;;;;27.50;13.52;;;;;;;11.66;94.57;102685.16;4939459;29;20359;-89
2021/10/14 00:43:25;;;;;;;24.88;13.10;;;;;;;11.68;94.74;102683.38;4920945;29;20086;-89
2021/10/14 00:45:50;;;;;;;20.77;13.18;;;;;;;11.69;94.79;102682.47;4906328;29;20346;-89
2021/10/14 00:48:34;;;;;;;28.63;14.43;;;;;;;11.72;94.88;102686.81;4921994;29;20243;-89
2021/10/14 00:51:00;;;;;;;25.05;14.25;;;;;;;11.72;95.09;102677.19;4938246;29;20636;-89
2021/10/14 00:53:25;;;;;;;25.27;14.25;;;;;;;11.74;94.86;102674.53;4921387;29;20043;-89
2021/10/14 00:55:51;;;;;;;29.83;15.18;;;;;;;11.76;94.71;102671.91;4937941;29;20273;-89
2021/10/14 00:58:16;;;;;;;26.05;15.13;;;;;;;11.76;94.79;102669.25;4921822;29;20074;-89
2021/10/14 01:04:05;;;;;;;26.13;14.23;;;;;;;11.81;94.85;102652.53;4934913;29;20255;-88
2021/10/14 01:06:30;;;;;;;30.67;15.30;;;;;;;11.82;94.86;102648.16;4923625;29;20054;-89
2021/10/14 01:08:56;;;;;;;27.70;15.00;;;;;;;11.86;95.17;102655.06;4921948;29;20039;-89
2021/10/14 01:11:21;;;;;;;26.27;13.95;;;;;;;11.87;94.96;102656.81;4920952;29;20043;-89
2021/10/14 01:13:47;;;;;;;32.65;15.82;;;;;;;11.87;95.27;102652.44;4905898;29;20569;-89
2021/10/14 01:16:12;;;;;;;26.88;14.82;;;;;;;11.88;95.38;102651.56;4921553;29;20046;-89
2021/10/14 01:18:38;;;;;;;28.05;14.95;;;;;;;11.89;95.37;102645.38;4889680;29;20039;-89
2021/10/14 01:21:03;;;;;;;26.38;14.27;;;;;;;11.89;95.33;102645.38;4937244;29;20416;-89
2021/10/14 01:23:28;;;;;;;27.10;14.15;;;;;;;11.90;95.21;102649.78;4920943;29;20047;-88
2021/10/14 01:25:54;;;;;;;30.95;14.60;;;;;;;11.90;95.27;102648.94;4921675;29;20031;-88
2021/10/14 01:28:19;;;;;;;29.13;14.57;;;;;;;11.89;95.32;102645.38;4905085;29;20398;-89
2021/10/14 01:30:45;;;;;;;32.70;16.17;;;;;;;11.89;95.14;102650.63;4921425;29;20035;-89
2021/10/14 01:33:11;;;;;;;26.38;15.48;;;;;;;11.90;95.58;102647.16;4905400;29;20031;-89
2021/10/14 01:35:36;;;;;;;33.30;17.55;;;;;;;11.89;95.19;102644.53;4936958;29;20087;-89
2021/10/14 01:38:02;;;;;;;40.03;18.60;;;;;;;11.88;95.39;102640.19;4921350;29;20063;-89
2021/10/14 01:40:27;;;;;;;37.40;18.98;;;;;;;11.87;95.22;102630.56;4921091;29;20032;-89
2021/10/14 01:42:53;;;;;;;41.42;20.65;;;;;;;11.87;95.45;102638.44;4921731;29;20313;-88
2021/10/14 01:45:18;;;;;;;38.72;19.33;;;;;;;11.86;95.43;102641.94;4936501;29;20342;-89
2021/10/14 01:47:44;;;;;;;38.92;19.63;;;;;;;11.84;95.41;102647.25;4921148;29;20292;-89
2021/10/14 01:50:09;;;;;;;37.85;19.20;;;;;;;11.83;95.58;102649.91;4937407;29;20056;-89
2021/10/14 01:52:35;;;;;;;39.63;19.23;;;;;;;11.81;95.30;102642.03;4936503;29;20073;-89
2021/10/14 01:55:00;;;;;;;41.30;18.90;;;;;;;11.81;95.50;102643.81;4938078;29;20232;-88
2021/10/14 01:57:25;;;;;;;45.28;20.35;;;;;;;11.80;95.26;102632.41;4921173;29;20257;-89
2021/10/14 01:59:51;;;;;;;38.42;18.30;;;;;;;11.80;95.34;102636.81;4906121;29;20048;-89
2021/10/14 02:02:16;;;;;;;43.55;19.42;;;;;;;11.79;95.50;102643.84;4890812;29;20339;-88
2021/10/14 02:04:42;;;;;;;37.63;19.10;;;;;;;11.77;95.34;102637.75;4906364;29;20378;-88
2021/10/14 02:07:07;;;;;;;40.45;18.88;;;;;;;11.78;95.38;102639.47;4906473;29;20031;-88
2021/10/14 02:09:33;;;;;;;40.67;19.45;;;;;;;11.77;95.54;102631.59;4921526;29;20054;-88
2021/10/14 02:11:58;;;;;;;38.70;18.35;;;;;;;11.77;95.44;102629.88;4922475;29;20051;-89
2021/10/14 02:14:24;;;;;;;34.45;18.92;;;;;;;11.77;95.46;102628.97;4921804;29;20031;-88
2021/10/14 02:16:49;;;;;;;36.22;18.38;;;;;;;11.76;95.46;102630.75;4906275;29;20040;-88
2021/10/14 02:19:15;;;;;;;41.85;18.63;;;;;;;11.77;95.62;102634.22;4890655;29;20274;-88
2021/10/14 02:21:40;;;;;;;38.88;18.17;;;;;;;11.76;95.56;102630.75;4905674;29;20219;-88
2021/10/14 02:24:06;;;;;;;45.63;19.15;;;;;;;11.77;95.63;102627.25;4890454;29;20150;-88
2021/10/14 02:26:31;;;;;;;41.45;18.10;;;;;;;11.78;95.64;102625.47;4905991;29;20047;-88
2021/10/14 02:28:56;;;;;;;36.85;17.10;;;;;;;11.79;95.59;102627.19;4922132;29;20051;-88
2021/10/14 02:31:22;;;;;;;37.55;17.35;;;;;;;11.78;95.75;102622.84;4921254;29;20279;-89
2021/10/14 02:33:47;;;;;;;36.40;17.30;;;;;;;11.78;95.89;102623.72;4906102;29;20032;-88
2021/10/14 02:36:13;;;;;;;39.45;19.08;;;;;;;11.80;95.61;102631.56;4923137;29;20050;-88
2021/10/14 02:38:38;;;;;;;39.33;17.50;;;;;;;11.79;95.88;102617.59;4921055;29;20032;-89
2021/10/14 02:41:04;;;;;;;39.60;18.52;;;;;;;11.79;95.54;102619.31;4906139;29;20381;-88
2021/10/14 02:43:29;;;;;;;37.33;18.45;;;;;;;11.79;95.79;102617.59;4905333;29;20050;-88
2021/10/14 02:45:55;;;;;;;44.75;19.13;;;;;;;11.79;95.66;102609.72;4890358;29;20071;-88
2021/10/14 02:48:20;;;;;;;36.30;17.85;;;;;;;11.80;95.96;102607.94;4889497;29;20056;-88
2021/10/14 02:50:46;;;;;;;41.45;17.63;;;;;;;11.80;95.86;102610.56;4890106;29;20028;-88
2021/10/14 02:53:11;;;;;;;35.47;18.58;;;;;;;11.78;95.87;102618.47;4905742;29;20048;-88
2021/10/14 02:55:37;;;;;;;33.38;17.55;;;;;;;11.81;95.68;102609.69;4890170;29;20341;-88
2021/10/14 02:58:02;;;;;;;43.25;18.02;;;;;;;11.80;95.85;102600.06;4917592;29;20043;-88
2021/10/14 03:00:27;;;;;;;40.47;18.13;;;;;;;11.80;95.86;102603.56;4904357;29;20338;-88
2021/10/14 03:02:53;;;;;;;38.83;18.27;;;;;;;11.80;95.84;102600.94;4889086;29;20059;-88
2021/10/14 03:05:18;;;;;;;31.70;16.65;;;;;;;11.81;96.10;102604.44;4904040;29;20044;-88
2021/10/14 03:07:44;;;;;;;31.80;14.85;;;;;;;11.79;95.70;102596.59;4919429;29;20040;-88
2021/10/14 03:10:09;;;;;;;45.38;17.45;;;;;;;11.80;95.92;102600.06;4903915;29;20036;-88
2021/10/14 03:12:35;;;;;;;36.72;17.70;;;;;;;11.83;95.68;102605.28;4903581;29;20112;-88
2021/10/14 03:15:00;;;;;;;39.00;18.02;;;;;;;11.82;95.87;102608.78;4920226;29;20046;-88
2021/10/14 03:17:26;;;;;;;35.90;17.67;;;;;;;11.82;95.83;102599.13;4888624;29;20235;-88
2021/10/14 03:19:51;;;;;;;43.97;18.55;;;;;;;11.85;95.82;102608.72;4888915;29;20169;-88
2021/10/14 03:22:17;;;;;;;51.72;18.40;;;;;;;11.87;95.95;102612.19;4904314;29;20084;-88
2021/10/14 03:24:42;;;;;;;45.35;19.58;;;;;;;11.87;95.77;102613.03;4874161;29;20140;-88
2021/10/14 03:27:07;;;;;;;45.67;19.30;;;;;;;11.88;95.99;102600.81;4919868;29;20359;-88
2021/10/14 03:29:33;;;;;;;36.42;18.33;;;;;;;11.90;95.87;102601.69;4919672;29;20412;-88
2021/10/14 03:31:58;;;;;;;34.90;19.05;;;;;;;11.92;95.98;102607.75;4935654;29;20040;-88
2021/10/14 03:34:23;;;;;;;45.13;21.58;;;;;;;11.93;96.15;102606.00;4935226;29;20047;-88
2021/10/14 03:36:49;;;;;;;53.42;21.23;;;;;;;11.94;96.08;102603.34;4919530;29;20263;-88
2021/10/14 03:39:15;;;;;;;39.95;20.13;;;;;;;11.95;96.08;102602.47;4935256;29;20036;-88
2021/10/14 03:41:40;;;;;;;41.30;18.88;;;;;;;11.94;96.21;102605.97;4919465;29;20032;-88
2021/10/14 03:44:05;;;;;;;41.42;19.48;;;;;;;11.97;96.20;102605.03;4935618;29;20075;-88
2021/10/14 03:46:31;;;;;;;38.50;18.58;;;;;;;11.98;96.41;102612.03;4919220;29;20059;-88
2021/10/14 03:48:56;;;;;;;37.53;18.92;;;;;;;11.98;96.38;102599.75;4919611;29;20339;-89
2021/10/14 03:51:22;;;;;;;40.08;19.20;;;;;;;11.99;96.27;102593.63;4934773;29;20125;-88
2021/10/14 03:53:47;;;;;;;32.00;17.45;;;;;;;12.00;96.21;102597.97;4919470;29;20331;-88
2021/10/14 03:56:12;;;;;;;33.85;17.30;;;;;;;12.02;96.07;102600.56;4921086;29;20043;-88
2021/10/14 03:58:38;;;;;;;37.47;18.00;;;;;;;12.01;96.09;102602.34;4938222;29;20035;-88
2021/10/14 04:01:03;;;;;;;29.70;17.85;;;;;;;12.03;96.22;102603.19;4938174;29;20027;-88
2021/10/14 04:03:29;;;;;;;33.33;16.98;;;;;;;12.03;96.14;102595.28;4906396;29;20330;-88
2021/10/14 04:05:54;;;;;;;34.47;16.88;;;;;;;12.05;95.90;102603.16;4939625;29;20098;-88
2021/10/14 04:08:20;;;;;;;32.45;16.35;;;;;;;12.06;96.09;102599.59;4937654;29;20047;-88
2021/10/14 04:10:45;;;;;;;40.63;17.17;;;;;;;12.06;96.17;102603.13;4938239;29;20231;-88
2021/10/14 04:13:11;;;;;;;28.85;15.60;;;;;;;12.08;95.95;102605.72;4890956;29;20038;-88
2021/10/14 04:15:36;;;;;;;30.52;15.57;;;;;;;12.08;95.81;102606.59;4937707;29;20103;-88
2021/10/14 04:18:01;;;;;;;30.20;15.75;;;;;;;12.08;96.20;102609.22;4922182;29;20031;-88
2021/10/14 04:20:27;;;;;;;35.47;14.98;;;;;;;12.09;96.22;102600.41;4921956;29;20200;-88
2021/10/14 04:22:53;;;;;;;28.52;14.95;;;;;;;12.12;96.15;102601.28;4922313;29;20114;-88
2021/10/14 04:25:18;;;;;;;28.23;13.82;;;;;;;12.12;96.25;102604.75;4921787;29;20035;-88
2021/10/14 04:27:44;;;;;;;32.70;14.10;;;;;;;12.12;96.36;102594.25;4937966;29;20274;-88
2021/10/14 04:30:09;;;;;;;29.98;13.25;;;;;;;12.14;96.11;102594.25;4921779;29;20339;-88
2021/10/14 04:32:35;;;;;;;25.75;13.50;;;;;;;12.14;96.20;102595.09;4921299;29;20039;-88
2021/10/14 04:35:02;;;;;;;25.40;14.02;;;;;;;12.14;96.02;102591.63;4919374;29;20039;-88
2021/10/14 04:37:27;;;;;;;22.95;12.15;;;;;;;12.15;96.04;102585.44;4921460;29;20342;-88
2021/10/14 04:39:53;;;;;;;31.40;13.15;;;;;;;12.15;96.08;102586.34;4921919;29;20158;-88
2021/10/14 04:42:18;;;;;;;29.52;13.77;;;;;;;12.16;96.16;102582.78;4905366;29;20036;-89
2021/10/14 04:44:44;;;;;;;32.85;14.10;;;;;;;12.16;96.31;102588.03;4937303;29;20043;-88
2021/10/14 04:47:09;;;;;;;26.63;12.73;;;;;;;12.18;96.25;102586.25;4921511;29;20031;-88
2021/10/14 04:49:34;;;;;;;22.75;11.75;;;;;;;12.19;96.08;102589.78;4937309;29;20044;-88
2021/10/14 04:52:00;;;;;;;24.05;12.38;;;;;;;12.18;96.25;102582.78;4937356;29;20035;-88
2021/10/14 04:54:26;;;;;;;22.65;12.25;;;;;;;12.18;96.34;102586.25;4921471;29;20040;-88
2021/10/14 04:56:51;;;;;;;27.63;12.20;;;;;;;12.20;96.19;102591.47;4937291;29;20350;-88
2021/10/14 04:59:17;;;;;;;20.67;11.50;;;;;;;12.19;96.44;102587.13;4905531;29;20063;-88
2021/10/14 05:01:42;;;;;;;26.00;12.45;;;;;;;12.20;96.38;102592.34;4920817;29;20038;-88
2021/10/14 05:04:07;;;;;;;23.45;10.85;;;;;;;12.20;96.51;102583.59;4936995;29;20063;-88
2021/10/14 05:06:33;;;;;;;19.58;10.77;;;;;;;12.20;96.08;102592.34;4938319;29;20062;-88
2021/10/14 05:08:58;;;;;;;16.83;11.00;;;;;;;12.21;96.30;102587.97;4937007;29;20043;-88
2021/10/14 05:11:24;;;;;;;21.92;10.73;;;;;;;12.20;96.27;102594.97;4920333;29;20043;-88
2021/10/14 05:13:49;;;;;;;26.02;11.63;;;;;;;12.20;96.30;102594.09;4921179;29;20327;-88
2021/10/14 05:16:14;;;;;;;19.55;11.48;;;;;;;12.21;96.29;102586.19;4904897;29;20055;-88
2021/10/14 05:18:40;;;;;;;20.02;11.02;;;;;;;12.21;96.25;102583.56;4936277;29;20075;-88
2021/10/14 05:21:05;;;;;;;22.80;10.88;;;;;;;12.21;96.56;102587.97;4921257;29;20051;-89
2021/10/14 05:23:31;;;;;;;25.50;11.30;;;;;;;12.21;96.33;102594.09;4933398;29;20061;-88
2021/10/14 05:25:56;;;;;;;22.23;10.60;;;;;;;12.21;96.25;102588.84;4902206;29;20040;-88
2021/10/14 05:28:21;;;;;;;19.95;10.38;;;;;;;12.20;96.17;102584.47;4916786;29;20043;-88
2021/10/14 05:30:47;;;;;;;18.70;10.75;;;;;;;12.20;96.19;102594.97;4921020;29;20254;-88
2021/10/14 05:33:13;;;;;;;18.92;9.57;;;;;;;12.21;96.17;102594.09;4940547;29;20036;-88
2021/10/14 05:35:38;;;;;;;20.05;9.48;;;;;;;12.21;96.22;102587.97;4924170;29;20043;-89
2021/10/14 05:38:04;;;;;;;16.40;8.20;;;;;;;12.20;96.12;102588.84;4941526;29;20102;-89
2021/10/14 05:40:29;;;;;;;13.82;8.93;;;;;;;12.20;96.23;102580.97;4921422;29;20062;-88
2021/10/14 05:42:55;;;;;;;14.85;8.55;;;;;;;12.20;96.11;102580.97;4937512;29;20385;-89
2021/10/14 05:45:20;;;;;;;18.10;7.95;;;;;;;12.20;95.89;102579.19;4921101;29;20251;-88
2021/10/14 05:47:45;;;;;;;10.68;8.38;;;;;;;12.20;95.78;102583.59;4924549;29;20067;-88
2021/10/14 05:50:11;;;;;;;20.35;8.68;;;;;;;12.19;95.99;102580.13;4924816;29;20381;-88
2021/10/14 05:52:36;;;;;;;14.55;7.88;;;;;;;12.20;95.96;102581.84;4923778;29;20032;-88
2021/10/14 05:55:02;;;;;;;18.35;8.50;;;;;;;12.20;95.85;102580.97;4937632;29;20342;-88
2021/10/14 05:57:28;;;;;;;16.48;8.13;;;;;;;12.20;95.94;102573.09;4922932;29;20036;-88
2021/10/14 05:59:55;;;;;;;13.55;8.57;;;;;;;12.19;96.01;102577.50;4924272;29;20039;-88
2021/10/14 06:02:21;;;;;;;18.83;9.23;;;;;;;12.19;95.90;102580.13;4924304;29;20041;-88
2021/10/14 06:04:46;;;;;;;19.10;8.95;;;;;;;12.20;95.84;102570.47;4939506;29;20064;-88
2021/10/14 06:07:12;;;;;;;16.73;8.13;;;;;;;12.20;95.94;102578.34;4907306;29;20050;-89
2021/10/14 06:09:37;;;;;;;13.27;8.98;;;;;;;12.20;95.70;102578.34;4922255;29;20371;-88
2021/10/14 06:12:03;;;;;;;15.93;8.93;;;;;;;12.20;95.66;102580.97;4923071;29;20051;-88
2021/10/14 06:14:28;;;;;;;22.27;9.52;;;;;;;12.19;95.82;102574.88;4922328;29;20181;-88
2021/10/14 06:16:53;;;;;;;27.02;8.70;;;;;;;12.20;95.81;102578.34;4907868;29;20199;-88
2021/10/14 06:19:19;;;;;;;15.93;9.00;;;;;;;12.20;95.57;102568.69;4907255;29;20047;-88
2021/10/14 06:21:45;;;;;;;23.17;9.88;;;;;;;12.21;95.76;102572.22;4908530;29;20337;-88
2021/10/14 06:24:10;;;;;;;15.25;9.00;;;;;;;12.21;95.74;102565.19;4924599;29;20238;-88
2021/10/14 06:26:36;;;;;;;13.70;8.35;;;;;;;12.22;95.76;102573.94;4923714;29;20266;-88
2021/10/14 06:29:01;;;;;;;17.00;9.35;;;;;;;12.23;95.47;102579.16;4924131;29;20335;-88
2021/10/14 06:31:27;;;;;;;14.50;8.10;;;;;;;12.24;95.72;102580.00;4908096;29;20044;-88
2021/10/14 06:33:52;;;;;;;14.63;7.68;;;;;;;12.22;95.55;102572.16;4937704;29;20053;-88
2021/10/14 06:36:18;;;;;;;23.02;8.73;;;;;;;12.23;95.42;102568.66;4919897;29;20134;-88
2021/10/14 06:38:43;;;;;;;18.55;8.48;;;;;;;12.24;95.35;102564.25;4924195;29;20040;-88
2021/10/14 06:41:08;;;;;;;14.38;8.00;;;;;;;12.24;95.47;102561.63;4923995;29;20084;-88
2021/10/14 06:43:34;;;;;;;12.52;7.90;;;;;;;12.25;95.54;102561.59;4920365;29;20099;-88
2021/10/14 06:45:59;;;;;;;18.55;8.25;;;;;;;12.26;95.40;102565.97;4908413;29;20031;-88
2021/10/14 06:48:25;;;;;;;11.40;8.20;;;;;;;12.25;95.85;102561.59;4939360;29;20082;-88
2021/10/14 06:50:51;;;;;;;16.77;9.80;;;;;;;12.26;95.38;102560.72;4919382;29;20063;-88
2021/10/14 06:53:16;;;;;;;11.25;8.70;;;;;;;12.26;95.61;102565.97;4916127;29;20083;-88
2021/10/14 06:55:42;;;;;;;25.73;8.38;;;;;;;12.27;95.33;102566.81;4939297;29;20040;-88
2021/10/14 06:58:07;;;;;;;13.50;8.35;;;;;;;12.27;95.56;102572.06;4939818;29;20046;-88
2021/10/14 07:00:33;;;;;;;18.58;8.85;;;;;;;12.27;95.30;102561.56;4923316;29;20050;-88
2021/10/14 07:02:58;;;;;;;11.07;8.70;;;;;;;12.27;95.37;102565.06;4923836;29;20040;-88
2021/10/14 07:05:24;;;;;;;18.33;9.45;;;;;;;12.27;95.33;102562.44;4938539;29;20087;-88
2021/10/14 07:07:49;;;;;;;19.05;9.35;;;;;;;12.29;95.35;102565.88;4929641;29;20059;-89
2021/10/14 07:10:16;;;;;;;15.73;9.43;;;;;;;12.30;95.54;102569.41;4917545;29;20039;-88
2021/10/14 07:12:41;;;;;;;14.93;9.65;;;;;;;12.31;95.21;102559.75;4912912;29;20074;-88
2021/10/14 07:15:07;;;;;;;16.85;9.10;;;;;;;12.31;95.57;102576.38;4919415;29;20055;-88
2021/10/14 07:17:33;;;;;;;16.42;9.68;;;;;;;12.30;95.38;102566.78;4935036;29;20032;-88
2021/10/14 07:19:58;;;;;;;17.13;8.93;;;;;;;12.33;95.11;102565.84;4921561;29;20027;-88
2021/10/14 07:22:24;;;;;;;18.08;9.25;;;;;;;12.33;95.32;102556.19;4921452;29;20428;-88
2021/10/14 07:24:49;;;;;;;15.60;9.30;;;;;;;12.33;95.40;102563.19;4905742;29;20240;-88
2021/10/14 07:27:14;;;;;;;18.17;9.45;;;;;;;12.34;94.97;102563.19;4921298;29;20127;-88
2021/10/14 07:29:40;;;;;;;16.42;9.48;;;;;;;12.34;95.04;102560.56;4921152;29;20221;-88
2021/10/14 07:32:06;;;;;;;14.10;9.02;;;;;;;12.32;94.73;102557.09;4921300;29;20090;-88
2021/10/14 07:34:35;;;;;;;24.00;10.23;;;;;;;12.35;94.85;102553.53;4920966;29;20149;-88
2021/10/14 07:37:01;;;;;;;17.58;9.65;;;;;;;12.35;94.74;102551.78;4921782;29;20107;-88
2021/10/14 07:39:26;;;;;;;13.57;9.70;;;;;;;12.36;94.87;102547.38;4920493;29;20208;-88
2021/10/14 07:41:52;;;;;;;13.75;8.95;;;;;;;12.36;94.85;102552.63;4949361;29;20259;-88
2021/10/14 07:44:17;;;;;;;12.82;9.93;;;;;;;12.35;94.77;102558.78;4921022;29;20107;-88
2021/10/14 07:46:44;;;;;;;20.75;10.18;;;;;;;12.35;94.72;102556.16;4921065;29;20226;-88
2021/10/14 07:49:09;;;;;;;15.32;10.00;;;;;;;12.36;94.79;102552.63;4920724;29;20091;-88
2021/10/14 07:51:35;;;;;;;18.85;10.45;;;;;;;12.36;94.79;102560.53;4933128;29;20100;-89
2021/10/14 07:54:02;;;;;;;16.50;10.57;;;;;;;12.36;94.88;102561.38;4920669;29;20277;-88
2021/10/14 07:56:27;;;;;;;17.30;10.15;;;;;;;12.36;94.86;102556.13;4920558;29;20032;-88
2021/10/14 07:58:53;;;;;;;20.10;10.23;;;;;;;12.36;94.90;102556.13;4936801;29;20200;-88
2021/10/14 08:01:18;;;;;;;16.00;10.75;;;;;;;12.38;94.70;102559.59;4936184;29;20058;-88
2021/10/14 08:03:44;;;;;;;23.27;11.57;;;;;;;12.38;94.69;102561.34;4936586;29;20043;-88
2021/10/14 08:06:10;;;;;;;20.17;10.27;;;;;;;12.39;94.68;102560.47;4921114;29;20392;-88
2021/10/14 08:08:35;;;;;;;25.00;11.30;;;;;;;12.40;94.75;102565.66;4904572;29;20230;-88
2021/10/14 08:11:01;;;;;;;26.35;12.55;;;;;;;12.41;94.78;102558.66;4917668;29;20216;-88
2021/10/14 08:13:26;;;;;;;27.83;11.65;;;;;;;12.43;94.76;102565.59;4920212;29;20043;-88
2021/10/14 08:15:53;;;;;;;27.27;11.98;;;;;;;12.43;94.68;102570.88;4937398;29;20231;-88
2021/10/14 08:18:19;;;;;;;21.27;11.10;;;;;;;12.46;94.89;102570.81;4904913;29;20035;-88
2021/10/14 08:20:44;;;;;;;19.38;11.30;;;;;;;12.48;94.67;102566.38;4920336;29;20028;-87
2021/10/14 08:23:10;;;;;;;27.15;11.63;;;;;;;12.48;94.68;102561.13;4936286;29;20043;-88
2021/10/14 08:25:35;;;;;;;23.05;11.90;;;;;;;12.52;94.99;102561.06;4920319;29;20039;-88
2021/10/14 08:28:01;;;;;;;22.00;10.90;;;;;;;12.54;94.70;102564.53;4920729;29;20525;-88
2021/10/14 08:30:26;;;;;;;21.02;11.68;;;;;;;12.54;94.51;102562.75;4920165;29;20036;-88
2021/10/14 08:32:52;;;;;;;25.75;13.05;;;;;;;12.54;94.72;102561.91;4920223;29;20370;-88
2021/10/14 08:35:18;;;;;;;26.15;13.07;;;;;;;12.56;94.55;102563.59;4920648;29;20294;-88
2021/10/14 08:37:44;;;;;;;24.38;12.23;;;;;;;12.57;94.52;102554.81;4904581;29;20030;-88
2021/10/14 08:40:10;;;;;;;28.50;14.93;;;;;;;12.59;94.35;102558.28;4920238;29;20044;-88
2021/10/14 08:42:35;;;;;;;25.42;14.27;;;;;;;12.61;94.75;102563.50;4919926;29;20039;-88
2021/10/14 08:45:05;;;;;;;30.10;15.73;;;;;;;12.61;94.65;102561.72;4937210;29;20048;-88
2021/10/14 08:47:31;;;;;;;28.70;16.35;;;;;;;12.63;94.63;102564.31;4919909;29;20338;-88
2021/10/14 08:49:57;;;;;;;29.67;15.93;;;;;;;12.64;94.78;102560.78;4904278;29;20429;-88
2021/10/14 08:52:22;;;;;;;28.02;15.05;;;;;;;12.66;94.51;102561.59;4916243;29;20056;-88
2021/10/14 08:54:48;;;;;;;35.28;16.92;;;;;;;12.66;94.88;102567.75;4935807;29;20048;-88
2021/10/14 08:57:13;;;;;;;32.65;17.33;;;;;;;12.68;94.90;102573.84;4936076;29;20063;-88
2021/10/14 08:59:39;;;;;;;36.88;18.08;;;;;;;12.69;94.72;102566.81;4919160;29;20039;-88
2021/10/14 09:02:07;;;;;;;26.95;17.17;;;;;;;12.72;94.71;102568.53;4919795;29;20043;-88
2021/10/14 09:04:33;;;;;;;29.63;18.13;;;;;;;12.73;94.56;102571.09;4934003;29;20074;-88
2021/10/14 09:07:09;;;;;;;29.67;16.60;;;;;;;12.75;94.49;102565.81;4916974;29;20043;-88
2021/10/14 09:09:36;;;;;;;31.80;18.15;;;;;;;12.76;94.35;102565.78;4912527;29;20040;-88
2021/10/14 09:12:03;;;;;;;33.45;17.80;;;;;;;12.81;93.97;102569.16;4932169;29;20390;-88
2021/10/14 09:14:29;;;;;;;36.80;18.23;;;;;;;12.83;94.30;102579.66;4934542;29;20074;-88
2021/10/14 09:16:54;;;;;;;35.75;18.02;;;;;;;12.84;94.20;102568.22;4910424;29;20039;-88
2021/10/14 09:19:23;;;;;;;35.63;19.00;;;;;;;12.84;94.29;102561.22;4920423;29;20374;-88
2021/10/14 09:21:55;;;;;;;35.67;18.42;;;;;;;12.86;93.96;102569.94;4921216;29;20304;-88
2021/10/14 09:24:28;;;;;;;29.10;17.08;;;;;;;12.89;94.16;102566.38;4937123;29;20319;-88
2021/10/14 09:26:54;;;;;;;33.17;16.52;;;;;;;12.91;94.04;102563.69;4921398;29;20035;-88
2021/10/14 09:29:20;;;;;;;30.73;16.58;;;;;;;12.92;94.10;102573.34;4920623;29;20333;-88
2021/10/14 09:31:56;;;;;;;33.67;17.98;;;;;;;12.94;93.87;102558.38;4906152;29;20097;-88
2021/10/14 09:34:38;;;;;;;28.33;16.83;;;;;;;12.95;93.88;102555.72;4936285;29;20243;-88
2021/10/14 09:37:15;;;;;;;30.17;16.75;;;;;;;12.96;93.78;102556.56;4937258;29;20081;-88
2021/10/14 09:40:03;;;;;;;30.67;16.35;;;;;;;12.97;94.23;102561.81;4933158;29;20390;-88
2021/10/14 09:42:43;;;;;;;27.83;15.63;;;;;;;12.96;93.93;102556.56;4922733;29;20354;-88
2021/10/14 09:45:30;;;;;;;24.35;15.00;;;;;;;12.99;93.96;102556.53;4921540;29;20339;-88
2021/10/14 09:48:05;;;;;;;23.92;15.18;;;;;;;13.02;93.87;102553.78;4938166;29;20058;-88
2021/10/14 09:50:41;;;;;;;28.02;15.02;;;;;;;13.04;93.90;102546.72;4936431;29;20046;-88
2021/10/14 09:53:09;;;;;;;30.15;13.60;;;;;;;13.07;93.66;102551.91;4937104;29;20295;-88
2021/10/14 10:01:23;;;;;;;17.20;10.18;;;;;;;13.15;93.04;102549.09;4934006;29;20035;-88
2021/10/14 10:03:49;;;;;;;13.82;6.97;;;;;;;13.15;92.65;102550.00;4919635;29;20039;-88
2021/10/14 10:06:14;;;;;;;10.82;6.30;;;;;;;13.17;92.09;102542.91;4905219;29;20058;-88
2021/10/14 10:08:41;;;;;;;16.20;7.85;;;;;;;13.18;91.68;102542.00;4920542;29;20046;-88
2021/10/14 10:11:10;;;;;;;6.72;5.13;;;;;;;13.18;91.23;102539.38;4920035;29;20047;-88
2021/10/14 10:13:37;;;;;;;6.85;6.20;;;;;;;13.17;90.78;102536.78;4890255;29;20099;-88
2021/10/14 10:16:13;;;;;;;6.90;5.47;;;;;;;13.18;90.57;102542.00;4906373;29;20063;-88
2021/10/14 10:18:40;;;;;;;6.13;4.60;;;;;;;13.17;90.18;102535.03;4934739;29;20039;-88
2021/10/14 10:21:09;;;;;;;5.13;4.60;;;;;;;13.20;89.99;102534.94;4925139;29;20418;-88
2021/10/14 10:23:50;;;;;;;5.50;4.22;;;;;;;13.23;89.95;102528.75;4924565;29;20043;-88
2021/10/14 10:26:34;;;;;;;9.75;4.50;;;;;;;13.23;89.80;102524.34;4924020;29;20042;-88
2021/10/14 10:29:12;;;;;;;11.23;4.53;;;;;;;13.23;89.37;102521.72;4940351;29;20036;-88
2021/10/14 10:31:48;;;;;;;6.50;4.20;;;;;;;13.23;89.46;102523.47;4924691;29;20043;-88
2021/10/14 10:34:51;;;;;;;4.22;3.90;;;;;;;13.25;89.51;102521.69;4939867;29;20286;-88
2021/10/14 10:37:41;;;;;;;5.45;4.00;;;;;;;13.25;89.24;102513.78;4934460;29;20082;-88
2021/10/14 10:40:16;;;;;;;7.18;4.07;;;;;;;13.25;89.18;102521.69;4938651;29;20035;-88
2021/10/14 10:43:03;;;;;;;9.52;4.47;;;;;;;13.25;89.07;102522.53;4954056;29;20039;-88
2021/10/14 10:45:59;;;;;;;3.95;3.65;;;;;;;13.25;88.36;102521.69;4936013;29;20343;-88
2021/10/14 10:48:36;;;;;;;8.07;4.47;;;;;;;13.26;88.68;102515.50;4923338;29;20043;-88
2021/10/14 10:51:01;;;;;;;6.07;4.07;;;;;;;13.27;88.45;102516.38;4918936;29;20035;-88
2021/10/14 10:53:44;;;;;;;6.60;4.97;;;;;;;13.26;88.78;102523.38;4923380;29;20224;-88
2021/10/14 10:56:30;;;;;;;4.63;4.20;;;;;;;13.27;88.53;102511.13;4908235;29;20035;-88
2021/10/14 10:58:56;;;;;;;4.43;4.13;;;;;;;13.30;87.95;102511.91;4904947;29;20111;-88
2021/10/14 11:01:21;;;;;;;5.38;4.22;;;;;;;13.33;88.06;102510.97;4922652;29;20253;-88
2021/10/14 11:04:07;;;;;;;9.27;4.50;;;;;;;13.33;88.06;102500.47;4907509;29;20050;-88
2021/10/14 11:06:33;;;;;;;5.55;4.45;;;;;;;13.33;88.32;102510.97;4939173;29;20028;-88
2021/10/14 11:09:06;;;;;;;5.38;4.50;;;;;;;13.34;88.44;102507.47;4935662;29;20362;-88
2021/10/14 11:11:33;;;;;;;7.32;4.68;;;;;;;13.35;88.53;102494.28;4923151;29;20243;-88
2021/10/14 11:13:58;;;;;;;5.07;4.57;;;;;;;13.35;88.30;102502.16;4892033;29;20114;-88
2021/10/14 11:16:26;;;;;;;4.72;4.32;;;;;;;13.38;88.41;102499.44;4922143;29;20343;-88
2021/10/14 11:18:52;;;;;;;7.47;4.75;;;;;;;13.43;88.14;102494.06;4907617;29;20042;-88
2021/10/14 11:21:20;;;;;;;7.10;4.78;;;;;;;13.47;88.30;102486.94;4923628;29;20031;-88